createdAt,value
2023-10-29T00:01:04.274Z,7.80
2023-10-29T00:03:32.045Z,6.63
2023-10-29T00:06:01.288Z,7.22
2023-10-29T00:08:29.231Z,6.93
2023-10-29T00:10:56.823Z,6.80
2023-10-29T00:13:26.389Z,6.90
2023-10-29T00:15:54.155Z,6.95
2023-10-29T00:18:21.912Z,8.23
2023-10-29T00:20:49.628Z,7.23
2023-10-29T00:23:18.600Z,6.90
2023-10-29T00:25:46.200Z,6.72
2023-10-29T00:28:13.715Z,6.50
2023-10-29T00:30:41.399Z,6.43
2023-10-29T00:33:09.134Z,6.27
2023-10-29T00:35:37.320Z,6.47
2023-10-29T00:38:04.920Z,6.55
2023-10-29T00:40:33.935Z,6.55
2023-10-29T00:43:01.776Z,6.22
2023-10-29T00:45:29.705Z,5.97
2023-10-29T00:47:58.068Z,5.90
2023-10-29T00:50:26.067Z,6.15
2023-10-29T00:52:53.883Z,6.00
2023-10-29T00:55:21.677Z,5.90
2023-10-29T00:57:50.689Z,5.77
2023-10-29T01:00:22.362Z,5.75
2023-10-29T01:02:50.138Z,5.65
2023-10-29T01:05:17.945Z,5.80
2023-10-29T01:07:45.748Z,5.82
2023-10-29T01:10:13.794Z,6.30
2023-10-29T01:12:41.442Z,5.85
2023-10-29T01:15:11.497Z,6.20
2023-10-29T01:17:39.351Z,5.32
2023-10-29T01:20:08.093Z,5.80
2023-10-29T01:22:35.800Z,5.80
2023-10-29T01:25:06.691Z,5.47
2023-10-29T01:27:35.156Z,5.35
2023-10-29T01:30:02.763Z,5.47
2023-10-29T01:32:31.717Z,5.25
2023-10-29T01:34:59.653Z,5.67
2023-10-29T01:37:27.256Z,6.05
2023-10-29T01:39:54.878Z,5.50
2023-10-29T01:42:22.540Z,5.68
2023-10-29T01:44:50.319Z,5.43
2023-10-29T01:47:18.161Z,5.47
2023-10-29T01:49:47.080Z,5.25
2023-10-29T01:52:15.015Z,5.47
2023-10-29T01:54:43.210Z,5.90
2023-10-29T01:57:10.789Z,5.75
2023-10-29T01:59:38.358Z,5.20
2023-10-29T02:02:06.315Z,6.03
2023-10-29T02:04:35.150Z,5.50
2023-10-29T02:07:05.201Z,5.18
2023-10-29T02:09:32.824Z,5.30
2023-10-29T02:12:01.976Z,5.17
2023-10-29T02:14:31.118Z,5.13
2023-10-29T02:16:59.225Z,5.65
2023-10-29T02:19:26.839Z,5.00
2023-10-29T02:21:56.755Z,4.72
2023-10-29T02:24:24.567Z,5.00
2023-10-29T02:26:52.231Z,5.03
2023-10-29T02:29:19.880Z,4.90
2023-10-29T02:31:47.546Z,5.13
2023-10-29T02:34:15.216Z,5.20
2023-10-29T02:36:42.800Z,5.03
2023-10-29T02:39:13.818Z,5.18
2023-10-29T02:41:42.038Z,5.28
2023-10-29T02:44:09.653Z,5.47
2023-10-29T02:46:37.455Z,5.32
2023-10-29T02:49:05.121Z,4.93
2023-10-29T02:51:33.135Z,4.90
2023-10-29T02:54:00.823Z,5.18
2023-10-29T02:56:31.599Z,4.60
2023-10-29T02:58:59.211Z,4.50
2023-10-29T03:01:26.875Z,5.30
2023-10-29T03:03:54.840Z,5.15
2023-10-29T03:06:23.121Z,4.68
2023-10-29T03:08:50.855Z,4.60
2023-10-29T03:11:18.526Z,4.28
2023-10-29T03:13:47.387Z,5.10
2023-10-29T03:16:15.028Z,4.97
2023-10-29T03:18:42.657Z,4.88
2023-10-29T03:21:10.235Z,4.63
2023-10-29T03:23:37.877Z,4.80
2023-10-29T03:26:05.535Z,5.40
2023-10-29T03:28:33.110Z,4.78
2023-10-29T03:31:02.479Z,4.65
2023-10-29T03:33:30.199Z,5.07
2023-10-29T03:35:57.831Z,4.75
2023-10-29T03:38:25.467Z,5.20
2023-10-29T03:40:53.108Z,4.78
2023-10-29T03:43:20.680Z,5.05
2023-10-29T03:45:48.355Z,4.80
2023-10-29T03:48:17.476Z,5.00
2023-10-29T03:50:45.218Z,4.90
2023-10-29T03:53:12.767Z,4.70
2023-10-29T03:55:40.474Z,4.47
2023-10-29T03:58:08.052Z,4.72
2023-10-29T04:00:35.659Z,4.50
2023-10-29T04:03:03.423Z,4.47
2023-10-29T04:05:35.340Z,4.30
2023-10-29T04:08:03.029Z,4.13
2023-10-29T04:10:30.710Z,4.32
2023-10-29T04:12:58.512Z,3.97
2023-10-29T04:15:26.122Z,4.20
2023-10-29T04:17:53.757Z,4.25
2023-10-29T04:20:21.401Z,4.05
2023-10-29T04:22:50.445Z,4.47
2023-10-29T04:25:18.142Z,4.10
2023-10-29T04:27:46.008Z,4.00
2023-10-29T04:30:14.142Z,3.85
2023-10-29T04:32:41.938Z,3.90
2023-10-29T04:35:10.131Z,4.30
2023-10-29T04:37:37.732Z,4.15
2023-10-29T04:40:08.448Z,5.50
2023-10-29T04:42:36.061Z,4.95
2023-10-29T04:45:04.622Z,4.30
2023-10-29T04:47:32.397Z,4.25
2023-10-29T04:50:00.014Z,4.10
2023-10-29T04:52:27.814Z,4.90
2023-10-29T04:54:55.929Z,4.50
2023-10-29T04:57:24.861Z,4.80
2023-10-29T04:59:53.495Z,5.07
2023-10-29T05:02:23.043Z,5.15
2023-10-29T05:04:50.671Z,5.53
2023-10-29T05:07:18.245Z,4.88
2023-10-29T05:09:46.084Z,5.05
2023-10-29T05:12:13.625Z,5.38
2023-10-29T05:14:42.558Z,5.68
2023-10-29T05:17:11.528Z,7.33
2023-10-29T05:19:40.110Z,7.00
2023-10-29T05:22:07.822Z,5.97
2023-10-29T05:24:35.401Z,5.70
2023-10-29T05:27:04.145Z,5.35
2023-10-29T05:29:33.589Z,5.80
2023-10-29T05:32:02.536Z,6.25
2023-10-29T05:34:30.103Z,5.28
2023-10-29T05:36:57.672Z,5.88
2023-10-29T05:39:25.294Z,5.95
2023-10-29T05:41:52.926Z,5.40
2023-10-29T05:44:20.599Z,5.50
2023-10-29T05:46:48.916Z,5.28
2023-10-29T05:49:17.770Z,7.97
2023-10-29T05:51:45.426Z,6.13
2023-10-29T05:54:12.971Z,5.20
2023-10-29T05:56:40.608Z,5.40
2023-10-29T05:59:08.323Z,4.80
2023-10-29T06:01:35.894Z,4.97
2023-10-29T06:04:03.718Z,4.78
2023-10-29T06:06:32.751Z,4.80
2023-10-29T06:09:04.404Z,4.38
2023-10-29T06:11:37.670Z,4.78
2023-10-29T06:14:05.313Z,4.47
2023-10-29T06:16:32.936Z,7.00
2023-10-29T06:19:00.492Z,5.53
2023-10-29T06:21:28.406Z,4.13
2023-10-29T06:23:57.409Z,4.93
2023-10-29T06:26:25.495Z,4.22
2023-10-29T06:28:53.059Z,4.70
2023-10-29T06:31:20.929Z,3.90
2023-10-29T06:33:48.872Z,4.30
2023-10-29T06:36:16.420Z,4.03
2023-10-29T06:38:44.025Z,3.88
2023-10-29T06:41:12.996Z,4.07
2023-10-29T06:43:40.628Z,3.90
2023-10-29T06:46:08.219Z,3.70
2023-10-29T06:48:42.601Z,3.88
2023-10-29T06:51:10.513Z,3.83
2023-10-29T06:53:38.177Z,3.95
2023-10-29T06:56:06.723Z,3.60
2023-10-29T06:58:35.637Z,4.15
2023-10-29T07:01:06.398Z,3.45
2023-10-29T07:03:34.698Z,3.78
2023-10-29T07:06:10.357Z,5.97
2023-10-29T07:08:38.749Z,3.80
2023-10-29T07:11:07.008Z,3.00
2023-10-29T07:13:36.154Z,3.40
2023-10-29T07:16:05.542Z,3.20
2023-10-29T07:18:33.411Z,3.70
2023-10-29T07:21:01.195Z,3.50
2023-10-29T07:23:28.942Z,3.50
2023-10-29T07:25:56.873Z,3.53
2023-10-29T07:28:24.403Z,3.25
2023-10-29T07:30:53.379Z,3.00
2023-10-29T07:33:21.001Z,2.60
2023-10-29T07:35:48.815Z,2.95
2023-10-29T07:38:16.442Z,2.60
2023-10-29T07:40:44.237Z,2.50
2023-10-29T07:43:11.807Z,2.88
2023-10-29T07:45:39.409Z,2.53
2023-10-29T07:48:08.458Z,2.20
2023-10-29T07:50:36.148Z,2.05
2023-10-29T07:53:03.791Z,2.25
2023-10-29T07:55:31.374Z,2.17
2023-10-29T07:57:58.925Z,2.20
2023-10-29T08:00:26.567Z,2.53
2023-10-29T08:02:54.200Z,2.30
2023-10-29T08:05:23.998Z,2.00
2023-10-29T08:07:51.589Z,2.00
2023-10-29T08:10:20.008Z,1.90
2023-10-29T08:12:47.905Z,1.90
2023-10-29T08:15:15.512Z,1.90
2023-10-29T08:17:43.269Z,1.80
2023-10-29T08:20:12.692Z,2.45
2023-10-29T08:22:43.874Z,2.07
2023-10-29T08:25:13.083Z,1.80
2023-10-29T08:27:40.676Z,1.70
2023-10-29T08:30:11.359Z,2.00
2023-10-29T08:32:39.112Z,1.70
2023-10-29T08:35:08.593Z,2.57
2023-10-29T08:37:36.435Z,2.05
2023-10-29T08:40:06.418Z,2.00
2023-10-29T08:42:34.859Z,1.80
2023-10-29T08:45:02.516Z,2.33
2023-10-29T08:47:31.647Z,2.10
2023-10-29T08:49:59.682Z,1.90
2023-10-29T08:52:27.353Z,1.80
2023-10-29T08:54:55.201Z,1.80
2023-10-29T08:57:24.138Z,1.73
2023-10-29T08:59:51.796Z,1.80
2023-10-29T09:02:19.468Z,1.80
2023-10-29T09:04:48.093Z,1.67
2023-10-29T09:07:15.813Z,1.60
2023-10-29T09:09:43.425Z,1.98
2023-10-29T09:12:11.004Z,1.50
2023-10-29T09:14:39.977Z,1.60
2023-10-29T09:17:07.692Z,1.50
2023-10-29T09:19:35.385Z,1.50
2023-10-29T09:22:02.973Z,1.50
2023-10-29T09:24:30.625Z,1.90
2023-10-29T09:26:58.735Z,1.58
2023-10-29T09:29:26.493Z,1.83
2023-10-29T09:31:55.414Z,1.42
2023-10-29T09:34:22.996Z,1.50
2023-10-29T09:36:50.563Z,1.60
2023-10-29T09:39:18.521Z,1.52
2023-10-29T09:41:46.427Z,1.80
2023-10-29T09:44:19.366Z,1.60
2023-10-29T09:46:48.100Z,1.75
2023-10-29T09:49:17.125Z,1.30
2023-10-29T09:51:44.811Z,1.50
2023-10-29T09:54:14.276Z,1.48
2023-10-29T09:56:41.940Z,1.67
2023-10-29T09:59:09.569Z,1.40
2023-10-29T10:01:47.967Z,1.40
2023-10-29T10:04:24.665Z,1.30
2023-10-29T10:06:53.379Z,1.45
2023-10-29T10:09:21.278Z,1.35
2023-10-29T10:12:04.449Z,1.40
2023-10-29T10:14:32.200Z,1.40
2023-10-29T10:17:09.919Z,1.25
2023-10-29T10:19:39.633Z,1.45
2023-10-29T10:22:07.816Z,1.40
2023-10-29T10:24:40.734Z,1.40
2023-10-29T10:27:10.196Z,1.43
2023-10-29T10:29:38.114Z,1.92
2023-10-29T10:32:07.569Z,1.90
2023-10-29T10:34:38.290Z,2.08
2023-10-29T10:37:07.618Z,1.40
2023-10-29T10:39:35.444Z,1.57
2023-10-29T10:42:04.462Z,1.15
2023-10-29T10:44:33.105Z,2.30
2023-10-29T10:47:03.650Z,1.10
2023-10-29T10:49:32.744Z,1.40
2023-10-29T10:52:03.050Z,1.50
2023-10-29T10:54:32.291Z,1.40
2023-10-29T10:57:01.665Z,1.30
2023-10-29T10:59:29.367Z,1.85
2023-10-29T11:01:57.926Z,1.35
2023-10-29T11:04:27.663Z,1.30
2023-10-29T11:06:55.958Z,2.30
2023-10-29T11:09:24.725Z,2.03
2023-10-29T11:11:57.251Z,2.33
2023-10-29T11:14:26.040Z,1.58
2023-10-29T11:16:55.465Z,1.13
2023-10-29T11:19:41.092Z,1.10
2023-10-29T11:22:28.630Z,1.20
2023-10-29T11:25:39.301Z,1.08
2023-10-29T11:28:09.213Z,1.20
2023-10-29T11:30:37.100Z,1.30
2023-10-29T11:33:19.788Z,1.27
2023-10-29T11:35:48.208Z,1.05
2023-10-29T11:38:30.708Z,1.20
2023-10-29T11:40:58.491Z,1.17
2023-10-29T11:43:28.303Z,1.17
2023-10-29T11:45:57.694Z,1.30
2023-10-29T11:48:26.714Z,1.10
2023-10-29T11:51:22.707Z,1.10
2023-10-29T11:53:50.302Z,1.20
2023-10-29T11:56:18.540Z,1.20
2023-10-29T11:58:47.460Z,1.08
2023-10-29T12:01:21.874Z,1.10
2023-10-29T12:03:53.887Z,1.10
2023-10-29T12:06:21.749Z,1.27
2023-10-29T12:08:49.349Z,1.10
2023-10-29T12:11:17.084Z,1.40
2023-10-29T12:13:45.512Z,1.27
2023-10-29T12:16:14.485Z,1.40
2023-10-29T12:18:43.638Z,1.60
2023-10-29T12:21:12.284Z,1.30
2023-10-29T12:23:40.512Z,1.65
2023-10-29T12:26:11.722Z,1.30
2023-10-29T12:28:40.044Z,1.55
2023-10-29T12:31:10.382Z,1.40
2023-10-29T12:33:40.056Z,1.60
2023-10-29T12:36:16.090Z,1.40
2023-10-29T12:38:43.894Z,1.60
2023-10-29T12:41:14.690Z,1.50
2023-10-29T12:43:43.784Z,1.83
2023-10-29T12:46:12.914Z,1.77
2023-10-29T12:49:01.802Z,1.88
2023-10-29T12:51:31.973Z,1.98
2023-10-29T12:54:14.903Z,1.70
2023-10-29T12:56:53.199Z,1.70
2023-10-29T12:59:21.582Z,1.80
2023-10-29T13:01:51.144Z,1.77
2023-10-29T13:04:20.627Z,1.70
2023-10-29T13:06:48.164Z,1.70
2023-10-29T13:09:20.525Z,1.85
2023-10-29T13:11:49.438Z,1.70
2023-10-29T13:14:17.002Z,1.70
2023-10-29T13:16:44.843Z,1.70
2023-10-29T13:19:12.658Z,1.60
2023-10-29T13:21:42.052Z,1.70
2023-10-29T13:24:10.187Z,1.80
2023-10-29T13:26:38.941Z,1.52
2023-10-29T13:29:07.738Z,1.50
2023-10-29T13:31:35.719Z,1.50
2023-10-29T13:34:03.286Z,1.63
2023-10-29T13:36:30.836Z,1.50
2023-10-29T13:39:00.118Z,1.52
2023-10-29T13:41:28.389Z,1.70
2023-10-29T13:43:56.104Z,2.10
2023-10-29T13:46:24.041Z,1.50
2023-10-29T13:48:54.130Z,1.70
2023-10-29T13:51:22.510Z,2.13
2023-10-29T13:53:50.398Z,1.60
2023-10-29T13:56:19.415Z,1.77
2023-10-29T13:58:47.997Z,1.70
2023-10-29T14:01:20.006Z,1.73
2023-10-29T14:03:48.205Z,1.77
2023-10-29T14:06:15.990Z,1.70
2023-10-29T14:08:44.113Z,1.50
2023-10-29T14:11:12.214Z,2.67
2023-10-29T14:13:41.799Z,2.83
2023-10-29T14:16:10.795Z,1.70
2023-10-29T14:18:38.463Z,1.67
2023-10-29T14:21:07.114Z,1.60
2023-10-29T14:23:36.049Z,1.65
2023-10-29T14:26:04.024Z,1.60
2023-10-29T14:28:31.606Z,1.50
2023-10-29T14:31:00.823Z,1.80
2023-10-29T14:33:28.603Z,1.70
2023-10-29T14:35:57.415Z,1.98
2023-10-29T14:38:25.475Z,1.50
2023-10-29T14:40:54.667Z,1.70
2023-10-29T14:43:23.524Z,1.80
2023-10-29T14:45:52.433Z,1.60
2023-10-29T14:48:21.983Z,1.60
2023-10-29T14:50:49.991Z,1.50
2023-10-29T14:53:17.633Z,1.75
2023-10-29T14:55:48.432Z,1.42
2023-10-29T14:58:16.396Z,1.52
2023-10-29T15:00:44.332Z,1.50
2023-10-29T15:03:12.672Z,1.50
2023-10-29T15:05:42.197Z,2.38
2023-10-29T15:08:09.856Z,1.50
2023-10-29T15:10:37.604Z,1.90
2023-10-29T15:13:05.461Z,1.35
2023-10-29T15:15:33.888Z,1.63
2023-10-29T15:18:01.743Z,1.83
2023-10-29T15:20:31.165Z,1.50
2023-10-29T15:23:02.404Z,1.90
2023-10-29T15:25:30.972Z,1.50
2023-10-29T15:27:58.578Z,1.60
2023-10-29T15:30:26.811Z,1.58
2023-10-29T15:32:55.341Z,2.10
2023-10-29T15:35:23.026Z,1.60
2023-10-29T15:37:50.649Z,1.90
2023-10-29T15:40:19.748Z,1.87
2023-10-29T15:42:47.305Z,1.50
2023-10-29T15:45:14.999Z,1.80
2023-10-29T15:47:43.041Z,1.90
2023-10-29T15:50:12.621Z,1.83
2023-10-29T15:52:40.438Z,1.70
2023-10-29T15:55:09.329Z,2.20
2023-10-29T15:57:38.339Z,2.30
2023-10-29T16:00:09.209Z,1.95
2023-10-29T16:02:37.257Z,2.08
2023-10-29T16:05:05.720Z,1.80
2023-10-29T16:07:33.319Z,2.40
2023-10-29T16:10:00.910Z,1.95
2023-10-29T16:12:28.584Z,2.10
2023-10-29T16:14:58.404Z,1.95
2023-10-29T16:17:26.013Z,2.00
2023-10-29T16:19:53.555Z,2.00
2023-10-29T16:22:21.081Z,1.98
2023-10-29T16:24:48.739Z,2.13
2023-10-29T16:27:16.824Z,2.92
2023-10-29T16:29:44.506Z,2.70
2023-10-29T16:32:13.496Z,4.00
2023-10-29T16:34:41.826Z,9.52
2023-10-29T16:37:09.357Z,8.18
2023-10-29T16:39:37.178Z,6.65
2023-10-29T16:42:06.325Z,5.93
2023-10-29T16:44:34.666Z,6.65
2023-10-29T16:47:03.561Z,8.30
2023-10-29T16:49:32.732Z,7.07
2023-10-29T16:52:00.626Z,4.10
2023-10-29T16:54:30.378Z,5.33
2023-10-29T16:56:58.070Z,9.18
2023-10-29T16:59:25.685Z,11.70
2023-10-29T17:01:54.476Z,9.82
2023-10-29T17:04:22.525Z,7.30
2023-10-29T17:06:51.443Z,10.77
2023-10-29T17:09:19.513Z,6.82
2023-10-29T17:11:48.662Z,5.47
2023-10-29T17:14:18.352Z,5.63
2023-10-29T17:16:47.964Z,5.60
2023-10-29T17:19:15.535Z,5.30
2023-10-29T17:21:43.788Z,4.63
2023-10-29T17:24:12.842Z,4.40
2023-10-29T17:26:40.451Z,5.03
2023-10-29T17:29:08.033Z,4.55
2023-10-29T17:31:35.633Z,4.30
2023-10-29T17:34:03.203Z,4.22
2023-10-29T17:36:30.975Z,4.40
2023-10-29T17:38:58.634Z,4.40
2023-10-29T17:41:27.581Z,4.55
2023-10-29T17:43:55.596Z,3.87
2023-10-29T17:46:23.835Z,4.57
2023-10-29T17:48:53.744Z,5.10
2023-10-29T17:51:21.476Z,4.88
2023-10-29T17:53:51.188Z,5.03
2023-10-29T17:56:18.925Z,5.30
2023-10-29T17:58:48.962Z,5.25
2023-10-29T18:01:16.764Z,6.00
2023-10-29T18:03:47.734Z,4.50
2023-10-29T18:06:19.592Z,3.83
2023-10-29T18:08:49.526Z,3.93
2023-10-29T18:11:18.743Z,3.78
2023-10-29T18:13:47.995Z,8.07
2023-10-29T18:16:17.178Z,4.90
2023-10-29T18:18:44.847Z,3.75
2023-10-29T18:21:12.809Z,2.93
2023-10-29T18:23:40.580Z,2.70
2023-10-29T18:26:08.244Z,3.25
2023-10-29T18:28:35.826Z,2.42
2023-10-29T18:31:08.011Z,2.00
2023-10-29T18:33:36.204Z,1.50
2023-10-29T18:36:08.714Z,2.15
2023-10-29T18:38:36.513Z,2.35
2023-10-29T18:41:10.750Z,3.42
2023-10-29T18:43:38.353Z,2.20
2023-10-29T18:46:11.855Z,2.30
2023-10-29T18:48:39.909Z,1.90
2023-10-29T18:51:07.952Z,2.10
2023-10-29T18:53:35.601Z,1.90
2023-10-29T18:56:04.410Z,1.90
2023-10-29T18:58:32.015Z,2.00
2023-10-29T19:01:09.237Z,2.00
2023-10-29T19:03:38.927Z,2.03
2023-10-29T19:06:07.798Z,1.73
2023-10-29T19:08:36.079Z,2.20
2023-10-29T19:11:04.764Z,1.93
2023-10-29T19:13:32.729Z,1.80
2023-10-29T19:16:04.933Z,1.90
2023-10-29T19:18:33.052Z,2.10
2023-10-29T19:21:02.213Z,1.95
2023-10-29T19:23:29.975Z,1.93
2023-10-29T19:25:58.178Z,2.10
2023-10-29T19:28:25.954Z,1.90
2023-10-29T19:31:16.282Z,1.80
2023-10-29T19:33:41.661Z,1.60
2023-10-29T19:36:14.923Z,1.93
2023-10-29T19:38:43.413Z,1.80
2023-10-29T19:41:11.385Z,1.90
2023-10-29T19:43:38.955Z,1.63
2023-10-29T19:46:06.570Z,1.80
2023-10-29T19:48:34.283Z,1.73
2023-10-29T19:51:03.330Z,1.90
2023-10-29T19:53:33.931Z,1.80
2023-10-29T19:56:02.281Z,1.70
2023-10-29T19:58:29.822Z,1.70
2023-10-29T20:01:05.115Z,1.70
2023-10-29T20:03:33.339Z,1.67
2023-10-29T20:09:01.163Z,2.10
2023-10-29T20:11:32.992Z,1.70
2023-10-29T20:14:03.011Z,1.50
2023-10-29T20:16:30.626Z,1.70
2023-10-29T20:18:58.693Z,1.80
2023-10-29T20:21:27.858Z,1.90
2023-10-29T20:23:57.002Z,1.60
2023-10-29T20:26:25.111Z,1.80
2023-10-29T20:28:53.170Z,2.17
2023-10-29T20:31:21.592Z,1.50
2023-10-29T20:33:50.702Z,1.70
2023-10-29T20:36:18.604Z,1.83
2023-10-29T20:38:46.250Z,1.80
2023-10-29T20:41:15.261Z,1.80
2023-10-29T20:43:42.883Z,1.60
2023-10-29T20:46:11.741Z,1.60
2023-10-29T20:48:39.752Z,1.67
2023-10-29T20:51:07.750Z,1.53
2023-10-29T20:53:35.378Z,1.65
2023-10-29T20:56:05.648Z,1.52
2023-10-29T20:58:35.138Z,1.80
2023-10-29T21:01:04.031Z,1.58
2023-10-29T21:03:31.817Z,1.57
2023-10-29T21:06:00.301Z,1.67
2023-10-29T21:08:28.293Z,3.88
2023-10-29T21:11:02.758Z,1.73
2023-10-29T21:13:30.323Z,1.67
2023-10-29T21:16:05.302Z,1.60
2023-10-29T21:18:33.498Z,1.60
2023-10-29T21:21:03.116Z,1.60
2023-10-29T21:23:31.347Z,1.90
2023-10-29T21:25:58.268Z,1.65
2023-10-29T21:28:26.274Z,1.50
2023-10-29T21:30:53.949Z,1.60
2023-10-29T21:33:22.939Z,1.40
2023-10-29T21:35:52.012Z,1.30
2023-10-29T21:38:19.752Z,1.38
2023-10-29T21:40:47.402Z,1.70
2023-10-29T21:43:15.654Z,1.60
2023-10-29T21:45:43.246Z,1.70
2023-10-29T21:48:11.372Z,1.83
2023-10-29T21:50:42.042Z,5.53
2023-10-29T21:53:10.219Z,3.40
2023-10-29T21:55:38.295Z,1.67
2023-10-29T21:58:09.528Z,1.52
2023-10-29T22:00:37.322Z,1.80
2023-10-29T22:03:05.655Z,1.60
2023-10-29T22:05:33.707Z,1.80
2023-10-29T22:08:02.606Z,1.73
2023-10-29T22:10:30.919Z,1.60
2023-10-29T22:12:58.487Z,1.80
2023-10-29T22:15:28.639Z,1.60
2023-10-29T22:17:56.310Z,1.67
2023-10-29T22:20:24.117Z,1.63
2023-10-29T22:22:51.681Z,3.28
2023-10-29T22:25:20.759Z,1.77
2023-10-29T22:27:48.415Z,1.80
2023-10-29T22:30:16.372Z,1.73
2023-10-29T22:32:43.964Z,1.50
2023-10-29T22:35:11.543Z,1.90
2023-10-29T22:37:39.227Z,1.58
2023-10-29T22:40:08.392Z,1.70
2023-10-29T22:42:37.296Z,1.77
2023-10-29T22:45:05.528Z,1.70
2023-10-29T22:47:33.190Z,1.50
2023-10-29T22:50:00.882Z,1.55
2023-10-29T22:52:28.546Z,1.70
2023-10-29T22:54:56.136Z,1.63
2023-10-29T22:57:23.853Z,1.65
2023-10-29T22:59:53.518Z,1.60
2023-10-29T23:02:21.084Z,2.20
2023-10-29T23:04:48.662Z,1.80
2023-10-29T23:07:16.188Z,1.67
2023-10-29T23:09:43.845Z,1.70
2023-10-29T23:12:11.448Z,1.63
2023-10-29T23:14:39.808Z,1.75
2023-10-29T23:17:08.744Z,1.40
2023-10-29T23:19:36.400Z,1.90
2023-10-29T23:22:04.728Z,1.60
2023-10-29T23:24:32.357Z,1.80
2023-10-29T23:26:59.954Z,1.83
2023-10-29T23:29:27.585Z,1.75
2023-10-29T23:31:55.273Z,1.50
2023-10-29T23:34:24.484Z,1.60
2023-10-29T23:36:52.646Z,1.60
2023-10-29T23:39:20.984Z,1.50
2023-10-29T23:41:48.624Z,1.50
2023-10-29T23:44:16.236Z,1.70
2023-10-29T23:46:43.834Z,1.50
2023-10-29T23:49:11.385Z,1.60
2023-10-29T23:51:40.334Z,1.75
2023-10-29T23:54:08.317Z,1.60
2023-10-29T23:56:35.949Z,1.50
2023-10-29T23:59:03.506Z,1.65
